createdAt,value
2017-01-24T00:00:00.015Z,920.2
2017-01-24T00:00:28.114Z,920.26
2017-01-24T00:00:56.967Z,920.25
2017-01-24T00:01:24.840Z,920.26
2017-01-24T00:01:53.585Z,920.26
2017-01-24T00:02:21.295Z,920.26
2017-01-24T00:02:50.116Z,920.25
2017-01-24T00:03:19.055Z,920.23
2017-01-24T00:03:47.736Z,920.27
2017-01-24T00:04:15.826Z,920.2
2017-01-24T00:04:43.839Z,920.24
2017-01-24T00:05:13.460Z,920.22
2017-01-24T00:05:42.235Z,920.23
2017-01-24T00:06:10.225Z,920.21
2017-01-24T00:07:16.458Z,920.24
2017-01-24T00:07:44.449Z,920.22
2017-01-24T00:08:12.512Z,920.24
2017-01-24T00:08:40.488Z,920.24
2017-01-24T00:09:08.307Z,920.22
2017-01-24T00:09:36.327Z,920.21
2017-01-24T00:10:05.181Z,920.21
2017-01-24T00:10:33.062Z,920.22
2017-01-24T00:11:01.854Z,920.26
2017-01-24T00:11:29.881Z,920.2
2017-01-24T00:11:58.731Z,920.22
2017-01-24T00:12:26.611Z,920.22
2017-01-24T00:12:56.405Z,920.21
2017-01-24T00:13:25.244Z,920.23
2017-01-24T00:13:54.874Z,920.24
2017-01-24T00:14:23.669Z,920.23
2017-01-24T00:14:52.490Z,920.24
2017-01-24T00:15:21.263Z,920.23
2017-01-24T00:15:49.256Z,920.22
2017-01-24T00:16:18.939Z,920.21
2017-01-24T00:16:47.048Z,920.24
2017-01-24T00:17:16.049Z,920.23
2017-01-24T00:17:43.971Z,920.23
2017-01-24T00:18:13.432Z,920.23
2017-01-24T00:18:42.323Z,920.23
2017-01-24T00:19:11.918Z,920.26
2017-01-24T00:19:40.777Z,920.2
2017-01-24T00:20:09.666Z,920.22
2017-01-24T00:20:38.536Z,920.21
2017-01-24T00:21:06.518Z,920.2
2017-01-24T00:21:35.306Z,920.2
2017-01-24T00:22:04.058Z,920.23
2017-01-24T00:22:32.928Z,920.25
2017-01-24T00:23:00.960Z,920.23
2017-01-24T00:23:28.997Z,920.23
2017-01-24T00:23:57.066Z,920.25
2017-01-24T00:24:25.158Z,920.22
2017-01-24T00:24:53.114Z,920.2
2017-01-24T00:25:21.068Z,920.13
2017-01-24T00:25:49.175Z,920.17
2017-01-24T00:26:17.076Z,920.23
2017-01-24T00:26:45.088Z,920.19
2017-01-24T00:27:13.015Z,920.2
2017-01-24T00:27:41.077Z,920.23
2017-01-24T00:28:09.911Z,920.25
2017-01-24T00:28:38.762Z,920.22
2017-01-24T00:29:07.603Z,920.18
2017-01-24T00:29:35.549Z,920.16
2017-01-24T00:30:04.275Z,920.17
2017-01-24T00:30:33.133Z,920.18
2017-01-24T00:31:01.196Z,920.19
2017-01-24T00:31:30.065Z,920.17
2017-01-24T00:31:58.203Z,920.11
2017-01-24T00:32:26.270Z,920.16
2017-01-24T00:32:55.137Z,920.19
2017-01-24T00:33:24.021Z,920.13
2017-01-24T00:33:52.902Z,920.17
2017-01-24T00:34:21.794Z,920.16
2017-01-24T00:34:49.603Z,920.12
2017-01-24T00:35:18.279Z,920.09
2017-01-24T00:35:46.289Z,920.13
2017-01-24T00:36:14.317Z,920.12
2017-01-24T00:36:42.406Z,920.12
2017-01-24T00:37:10.483Z,920.16
2017-01-24T00:37:38.579Z,920.17
2017-01-24T00:38:06.653Z,920.16
2017-01-24T00:38:37.120Z,920.2
2017-01-24T00:39:05.208Z,920.02
2017-01-24T00:39:34.050Z,920.17
2017-01-24T00:40:02.151Z,920.15
2017-01-24T00:40:30.151Z,920.14
2017-01-24T00:40:58.995Z,920.17
2017-01-24T00:41:27.043Z,920.18
2017-01-24T00:41:55.907Z,920.18
2017-01-24T00:42:23.954Z,920.2
2017-01-24T00:42:51.910Z,920.13
2017-01-24T00:43:20.043Z,920.18
2017-01-24T00:43:48.919Z,920.24
2017-01-24T00:44:17.812Z,920.24
2017-01-24T00:44:46.559Z,920.21
2017-01-24T00:45:16.193Z,920.24
2017-01-24T00:45:44.278Z,920.21
2017-01-24T00:46:52.107Z,920.19
2017-01-24T00:47:20.067Z,920.26
2017-01-24T00:47:48.038Z,920.15
2017-01-24T00:48:18.461Z,920.24
2017-01-24T00:48:47.327Z,920.21
2017-01-24T00:49:16.112Z,920.24
2017-01-24T00:49:44.094Z,920.12
2017-01-24T00:50:12.163Z,920.24
2017-01-24T00:50:41.825Z,920.27
2017-01-24T00:51:09.946Z,920.24
2017-01-24T00:51:38.797Z,920.31
2017-01-24T00:52:06.853Z,920.28
2017-01-24T00:52:34.819Z,920.28
2017-01-24T00:53:02.883Z,920.32
2017-01-24T00:53:31.645Z,920.35
2017-01-24T00:53:59.755Z,920.29
2017-01-24T00:54:28.581Z,920.3
2017-01-24T00:54:57.450Z,920.3
2017-01-24T00:55:25.451Z,920.29
2017-01-24T00:55:53.589Z,920.25
2017-01-24T00:56:21.599Z,920.32
2017-01-24T00:56:49.573Z,920.26
2017-01-24T00:57:17.672Z,920.26
2017-01-24T00:57:45.757Z,920.27
2017-01-24T00:58:15.341Z,920.28
2017-01-24T00:58:43.472Z,920.3
2017-01-24T00:59:11.556Z,920.29
2017-01-24T00:59:40.432Z,920.29
2017-01-24T01:00:09.292Z,920.33
2017-01-24T01:00:37.179Z,920.27
2017-01-24T01:01:05.969Z,920.29
2017-01-24T01:01:33.939Z,920.29
2017-01-24T01:02:02.620Z,920.31
2017-01-24T01:02:30.559Z,920.32
2017-01-24T01:02:58.598Z,920.33
2017-01-24T01:03:26.788Z,920.34
2017-01-24T01:03:55.649Z,920.31
2017-01-24T01:04:23.617Z,920.31
2017-01-24T01:04:51.577Z,920.3
2017-01-24T01:05:19.582Z,920.31
2017-01-24T01:05:47.664Z,920.3
2017-01-24T01:06:17.229Z,920.26
2017-01-24T01:06:45.304Z,920.3
2017-01-24T01:07:13.367Z,920.32
2017-01-24T01:07:41.456Z,920.3
2017-01-24T01:08:09.336Z,920.29
2017-01-24T01:08:37.393Z,920.28
2017-01-24T01:09:07.080Z,920.31
2017-01-24T01:09:36.715Z,920.29
2017-01-24T01:10:04.656Z,920.27
2017-01-24T01:10:33.415Z,920.26
2017-01-24T01:11:01.329Z,920.3
2017-01-24T01:11:29.472Z,920.31
2017-01-24T01:11:57.536Z,920.25
2017-01-24T01:12:25.533Z,920.33
2017-01-24T01:12:53.639Z,920.29
2017-01-24T01:13:21.802Z,920.29
2017-01-24T01:13:49.739Z,920.31
2017-01-24T01:14:18.508Z,920.29
2017-01-24T01:14:47.195Z,920.31
2017-01-24T01:15:16.841Z,920.25
2017-01-24T01:15:44.799Z,920.23
2017-01-24T01:16:13.570Z,920.25
2017-01-24T01:16:41.558Z,920.25
2017-01-24T01:17:09.484Z,920.25
2017-01-24T01:17:38.326Z,920.24
2017-01-24T01:18:06.372Z,920.14
2017-01-24T01:18:34.465Z,920.21
2017-01-24T01:19:02.355Z,920.18
2017-01-24T01:19:31.232Z,920.18
2017-01-24T01:19:59.135Z,920.15
2017-01-24T01:20:27.993Z,920.2
2017-01-24T01:20:56.721Z,920.2
2017-01-24T01:21:26.371Z,920.17
2017-01-24T01:21:54.324Z,920.11
2017-01-24T01:22:23.157Z,920.17
2017-01-24T01:22:51.143Z,920.15
2017-01-24T01:23:19.225Z,920.18
2017-01-24T01:23:47.237Z,920.19
2017-01-24T01:24:16.013Z,920.2
2017-01-24T01:24:44.097Z,920.16
2017-01-24T01:25:13.732Z,920.15
2017-01-24T01:26:20.845Z,920.06
2017-01-24T01:26:49.704Z,920.14
2017-01-24T01:27:17.773Z,920.15
2017-01-24T01:27:45.751Z,920.08
2017-01-24T01:28:13.746Z,920.14
2017-01-24T01:28:41.990Z,920.11
2017-01-24T01:29:11.540Z,920.05
2017-01-24T01:29:39.419Z,920.1
2017-01-24T01:30:07.438Z,920.1
2017-01-24T01:30:35.366Z,920.11
2017-01-24T01:31:05.010Z,920.07
2017-01-24T01:31:33.136Z,920.04
2017-01-24T01:32:01.213Z,920.12
2017-01-24T01:32:30.064Z,920.07
2017-01-24T01:32:58.914Z,920.06
2017-01-24T01:33:27.817Z,920.1
2017-01-24T01:33:55.851Z,920.02
2017-01-24T01:34:24.762Z,920.06
2017-01-24T01:34:53.537Z,920.07
2017-01-24T01:35:21.466Z,920.11
2017-01-24T01:35:51.109Z,920.08
2017-01-24T01:36:18.910Z,920.06
2017-01-24T01:36:47.016Z,920.12
2017-01-24T01:37:15.789Z,920.07
2017-01-24T01:37:43.899Z,920.07
2017-01-24T01:38:11.933Z,920.06
2017-01-24T01:38:39.836Z,920.09
2017-01-24T01:39:08.624Z,920.08
2017-01-24T01:39:36.613Z,920.1
2017-01-24T01:40:06.249Z,920.11
2017-01-24T01:40:35.143Z,920.08
2017-01-24T01:41:03.150Z,920.02
2017-01-24T01:41:32.788Z,920.04
2017-01-24T01:42:00.812Z,920.12
2017-01-24T01:42:28.763Z,920.04
2017-01-24T01:42:56.742Z,920.06
2017-01-24T01:43:24.725Z,920.11
2017-01-24T01:43:54.369Z,920.02
2017-01-24T01:44:22.135Z,920.01
2017-01-24T01:44:50.919Z,920.07
2017-01-24T01:45:18.912Z,920.06
2017-01-24T01:45:46.926Z,920.1
2017-01-24T01:46:14.961Z,920.08
2017-01-24T01:46:43.803Z,920.07
2017-01-24T01:47:11.617Z,920.04
2017-01-24T01:47:39.412Z,920.08
2017-01-24T01:48:07.375Z,920.1
2017-01-24T01:48:37.823Z,920.06
2017-01-24T01:49:05.678Z,920.06
2017-01-24T01:49:35.302Z,920.05
2017-01-24T01:50:03.278Z,920.06
2017-01-24T01:50:31.376Z,920.02
2017-01-24T01:51:00.189Z,920.01
2017-01-24T01:51:28.166Z,920.01
2017-01-24T01:51:56.069Z,920.01
2017-01-24T01:52:25.645Z,920.02
2017-01-24T01:52:54.524Z,920.03
2017-01-24T01:53:22.562Z,919.97
2017-01-24T01:53:50.642Z,920.05
2017-01-24T01:54:18.732Z,920.04
2017-01-24T01:54:46.718Z,919.98
2017-01-24T01:55:14.771Z,919.99
2017-01-24T01:55:42.766Z,919.97
2017-01-24T01:56:11.365Z,919.93
2017-01-24T01:56:39.455Z,919.96
2017-01-24T01:57:07.525Z,919.99
2017-01-24T01:57:35.675Z,919.94
2017-01-24T01:58:03.762Z,919.98
2017-01-24T01:58:31.823Z,919.95
2017-01-24T01:59:00.017Z,919.92
2017-01-24T01:59:29.652Z,919.98
2017-01-24T01:59:57.438Z,919.92
2017-01-24T02:00:25.389Z,920
2017-01-24T02:00:54.255Z,919.91
2017-01-24T02:01:22.141Z,919.97
2017-01-24T02:01:50.187Z,919.95
2017-01-24T02:02:18.269Z,919.97
2017-01-24T02:02:47.150Z,920.02
2017-01-24T02:03:15.250Z,920.02
2017-01-24T02:03:44.980Z,920
2017-01-24T02:04:12.969Z,920.02
2017-01-24T02:04:41.831Z,919.96
2017-01-24T02:05:48.066Z,919.99
2017-01-24T02:06:16.051Z,919.95
2017-01-24T02:06:44.810Z,919.96
2017-01-24T02:07:12.884Z,919.96
2017-01-24T02:07:41.666Z,919.98
2017-01-24T02:08:11.306Z,919.96
2017-01-24T02:08:40.063Z,919.97
2017-01-24T02:09:08.121Z,919.93
2017-01-24T02:09:37.792Z,919.94
2017-01-24T02:10:05.821Z,920
2017-01-24T02:10:33.814Z,919.91
2017-01-24T02:11:02.053Z,919.93
2017-01-24T02:11:30.035Z,919.93
2017-01-24T02:11:58.803Z,919.99
2017-01-24T02:12:28.330Z,919.88
2017-01-24T02:12:56.349Z,919.91
2017-01-24T02:13:25.188Z,919.94
2017-01-24T02:13:53.229Z,919.91
2017-01-24T02:14:21.136Z,919.96
2017-01-24T02:14:49.929Z,919.94
2017-01-24T02:15:19.586Z,919.92
2017-01-24T02:15:47.558Z,919.94
2017-01-24T02:16:15.476Z,919.99
2017-01-24T02:16:44.340Z,919.91
2017-01-24T02:17:12.448Z,919.89
2017-01-24T02:17:40.571Z,919.97
2017-01-24T02:18:09.440Z,919.96
2017-01-24T02:18:37.533Z,919.96
2017-01-24T02:19:05.613Z,919.96
2017-01-24T02:19:33.592Z,919.99
2017-01-24T02:20:01.515Z,919.97
2017-01-24T02:20:29.395Z,919.97
2017-01-24T02:20:59.037Z,920
2017-01-24T02:21:27.178Z,919.98
2017-01-24T02:21:55.909Z,919.99
2017-01-24T02:22:23.993Z,919.98
2017-01-24T02:22:51.897Z,919.95
2017-01-24T02:23:20.745Z,919.93
2017-01-24T02:23:48.714Z,919.97
2017-01-24T02:24:16.736Z,919.95
2017-01-24T02:24:45.407Z,919.91
2017-01-24T02:25:14.209Z,919.92
2017-01-24T02:25:42.282Z,919.9
2017-01-24T02:26:10.166Z,919.92
2017-01-24T02:26:39.809Z,919.89
2017-01-24T02:27:09.448Z,919.9
2017-01-24T02:27:37.419Z,919.89
2017-01-24T02:28:07.097Z,919.91
2017-01-24T02:28:35.841Z,919.94
2017-01-24T02:29:04.037Z,919.89
2017-01-24T02:29:32.795Z,919.89
2017-01-24T02:30:01.676Z,919.9
2017-01-24T02:30:29.806Z,919.9
2017-01-24T02:30:57.870Z,919.97
2017-01-24T02:31:26.638Z,919.94
2017-01-24T02:31:55.512Z,919.9
2017-01-24T02:32:23.609Z,919.88
2017-01-24T02:32:52.516Z,919.89
2017-01-24T02:33:21.364Z,919.95
2017-01-24T02:33:49.360Z,919.85
2017-01-24T02:34:18.143Z,919.92
2017-01-24T02:34:48.541Z,919.88
2017-01-24T02:35:17.233Z,919.86
2017-01-24T02:35:45.031Z,919.8
2017-01-24T02:36:13.903Z,919.8
2017-01-24T02:36:41.979Z,919.82
2017-01-24T02:37:10.916Z,919.78
2017-01-24T02:37:38.908Z,919.77
2017-01-24T02:38:06.693Z,919.78
2017-01-24T02:38:35.386Z,919.72
2017-01-24T02:39:04.157Z,919.75
2017-01-24T02:39:32.126Z,919.75
2017-01-24T02:40:00.854Z,919.72
2017-01-24T02:40:29.630Z,919.75
2017-01-24T02:40:57.674Z,919.71
2017-01-24T02:41:25.647Z,919.74
2017-01-24T02:41:55.200Z,919.72
2017-01-24T02:42:24.074Z,919.71
2017-01-24T02:42:52.092Z,919.71
2017-01-24T02:43:20.170Z,919.69
2017-01-24T02:43:49.023Z,919.64
2017-01-24T02:44:17.258Z,919.69
2017-01-24T02:45:23.581Z,919.68
2017-01-24T02:45:51.571Z,919.63
2017-01-24T02:46:19.539Z,919.61
2017-01-24T02:46:47.615Z,919.64
2017-01-24T02:47:16.477Z,919.6
2017-01-24T02:47:44.475Z,919.63
2017-01-24T02:48:12.453Z,919.57
2017-01-24T02:48:40.515Z,919.56
2017-01-24T02:49:08.621Z,919.63
2017-01-24T02:49:37.517Z,919.57
2017-01-24T02:50:06.385Z,919.6
2017-01-24T02:50:35.289Z,919.64
2017-01-24T02:51:03.367Z,919.59
2017-01-24T02:51:31.439Z,919.62
2017-01-24T02:52:00.192Z,919.56
2017-01-24T02:52:28.985Z,919.6
2017-01-24T02:52:57.030Z,919.6
2017-01-24T02:53:25.904Z,919.62
2017-01-24T02:53:54.783Z,919.6
2017-01-24T02:54:22.801Z,919.6
2017-01-24T02:54:50.905Z,919.56
2017-01-24T02:55:19.659Z,919.57
2017-01-24T02:55:49.324Z,919.55
2017-01-24T02:56:17.913Z,919.52
2017-01-24T02:56:46.706Z,919.52
2017-01-24T02:57:14.747Z,919.52
2017-01-24T02:57:43.537Z,919.5
2017-01-24T02:58:11.628Z,919.51
2017-01-24T02:58:39.704Z,919.54
2017-01-24T02:59:08.650Z,919.5
2017-01-24T02:59:37.433Z,919.48
2017-01-24T03:00:06.274Z,919.47
2017-01-24T03:00:34.955Z,919.46
2017-01-24T03:01:04.624Z,919.46
2017-01-24T03:01:33.445Z,919.45
2017-01-24T03:02:01.517Z,919.49
2017-01-24T03:02:30.189Z,919.45
2017-01-24T03:02:58.240Z,919.47
2017-01-24T03:03:26.286Z,919.45
2017-01-24T03:03:55.162Z,919.44
2017-01-24T03:04:23.339Z,919.44
2017-01-24T03:04:51.444Z,919.42
2017-01-24T03:05:20.299Z,919.4
2017-01-24T03:05:48.266Z,919.46
2017-01-24T03:06:17.025Z,919.41
2017-01-24T03:06:45.791Z,919.44
2017-01-24T03:07:13.844Z,919.42
2017-01-24T03:07:41.974Z,919.46
2017-01-24T03:08:10.013Z,919.45
2017-01-24T03:08:37.981Z,919.46
2017-01-24T03:09:05.859Z,919.42
2017-01-24T03:09:33.677Z,919.46
2017-01-24T03:10:02.586Z,919.44
2017-01-24T03:10:31.435Z,919.42
2017-01-24T03:10:59.511Z,919.46
2017-01-24T03:11:27.515Z,919.46
2017-01-24T03:11:56.391Z,919.43
2017-01-24T03:12:26.070Z,919.43
2017-01-24T03:12:54.150Z,919.44
2017-01-24T03:13:22.826Z,919.44
2017-01-24T03:13:50.901Z,919.44
2017-01-24T03:14:19.006Z,919.43
2017-01-24T03:14:47.003Z,919.45
2017-01-24T03:15:14.980Z,919.48
2017-01-24T03:15:42.800Z,919.44
2017-01-24T03:16:11.664Z,919.46
2017-01-24T03:16:39.807Z,919.45
2017-01-24T03:17:08.671Z,919.47
2017-01-24T03:17:36.661Z,919.48
2017-01-24T03:18:05.520Z,919.47
2017-01-24T03:18:33.609Z,919.48
2017-01-24T03:19:01.591Z,919.46
2017-01-24T03:19:29.448Z,919.53
2017-01-24T03:19:57.524Z,919.51
2017-01-24T03:20:27.138Z,919.53
2017-01-24T03:20:55.181Z,919.52
2017-01-24T03:21:23.259Z,919.52
2017-01-24T03:21:51.341Z,919.53
2017-01-24T03:22:19.444Z,919.53
2017-01-24T03:22:48.293Z,919.5
2017-01-24T03:23:17.064Z,919.49
2017-01-24T03:23:45.052Z,919.53
2017-01-24T03:24:51.393Z,919.53
2017-01-24T03:25:20.239Z,919.55
2017-01-24T03:25:49.081Z,919.55
2017-01-24T03:26:17.064Z,919.54
2017-01-24T03:26:45.071Z,919.53
2017-01-24T03:27:13.764Z,919.56
2017-01-24T03:27:41.741Z,919.55
2017-01-24T03:28:09.719Z,919.52
2017-01-24T03:28:38.509Z,919.54
2017-01-24T03:29:07.396Z,919.53
2017-01-24T03:29:35.478Z,919.53
2017-01-24T03:30:03.576Z,919.53
2017-01-24T03:30:32.339Z,919.53
2017-01-24T03:31:01.208Z,919.52
2017-01-24T03:31:30.042Z,919.59
2017-01-24T03:31:58.160Z,919.56
2017-01-24T03:32:26.190Z,919.54
2017-01-24T03:32:55.060Z,919.6
2017-01-24T03:33:23.050Z,919.56
2017-01-24T03:33:50.979Z,919.52
2017-01-24T03:34:20.617Z,919.52
2017-01-24T03:34:48.680Z,919.53
2017-01-24T03:35:16.683Z,919.52
2017-01-24T03:35:44.575Z,919.52
2017-01-24T03:36:13.365Z,919.49
2017-01-24T03:36:41.484Z,919.47
2017-01-24T03:37:09.565Z,919.51
2017-01-24T03:37:37.573Z,919.48
2017-01-24T03:38:05.379Z,919.47
2017-01-24T03:38:33.442Z,919.48
2017-01-24T03:39:03.092Z,919.43
2017-01-24T03:39:31.154Z,919.43
2017-01-24T03:39:59.236Z,919.44
2017-01-24T03:40:27.166Z,919.43
2017-01-24T03:40:55.987Z,919.43
2017-01-24T03:41:24.752Z,919.43
2017-01-24T03:41:52.823Z,919.43
2017-01-24T03:42:20.690Z,919.42
2017-01-24T03:42:48.635Z,919.38
2017-01-24T03:43:16.737Z,919.4
2017-01-24T03:43:44.810Z,919.44
2017-01-24T03:44:13.694Z,919.41
2017-01-24T03:44:41.768Z,919.39
2017-01-24T03:45:10.188Z,919.39
2017-01-24T03:45:38.087Z,919.36
2017-01-24T03:46:06.845Z,919.39
2017-01-24T03:46:34.895Z,919.38
2017-01-24T03:47:02.932Z,919.4
2017-01-24T03:47:31.656Z,919.36
2017-01-24T03:47:59.708Z,919.35
2017-01-24T03:48:27.588Z,919.34
2017-01-24T03:48:55.681Z,919.38
2017-01-24T03:49:24.595Z,919.39
2017-01-24T03:49:52.659Z,919.38
2017-01-24T03:50:21.340Z,919.39
2017-01-24T03:50:50.125Z,919.38
2017-01-24T03:51:19.006Z,919.39
2017-01-24T03:51:47.821Z,919.4
2017-01-24T03:52:15.717Z,919.36
2017-01-24T03:52:43.712Z,919.36
2017-01-24T03:53:12.296Z,919.34
2017-01-24T03:53:40.164Z,919.38
2017-01-24T03:54:08.162Z,919.35
2017-01-24T03:54:36.232Z,919.33
2017-01-24T03:55:04.328Z,919.33
2017-01-24T03:55:33.970Z,919.36
2017-01-24T03:56:02.021Z,919.37
2017-01-24T03:56:30.016Z,919.39
2017-01-24T03:56:58.868Z,919.35
2017-01-24T03:57:27.744Z,919.38
2017-01-24T03:57:55.831Z,919.43
2017-01-24T03:58:23.887Z,919.37
2017-01-24T03:58:51.653Z,919.38
2017-01-24T03:59:20.421Z,919.37
2017-01-24T03:59:49.250Z,919.37
2017-01-24T04:00:17.350Z,919.35
2017-01-24T04:00:46.123Z,919.32
2017-01-24T04:01:14.118Z,919.37
2017-01-24T04:01:42.134Z,919.34
2017-01-24T04:02:11.579Z,919.34
2017-01-24T04:02:39.568Z,919.35
2017-01-24T04:03:07.552Z,919.36
2017-01-24T04:04:14.658Z,919.37
2017-01-24T04:04:42.645Z,919.37
2017-01-24T04:05:10.634Z,919.39
2017-01-24T04:05:38.713Z,919.39
2017-01-24T04:06:07.585Z,919.4
2017-01-24T04:06:35.587Z,919.38
2017-01-24T04:07:03.658Z,919.42
2017-01-24T04:07:31.717Z,919.41
2017-01-24T04:07:59.733Z,919.4
2017-01-24T04:08:27.753Z,919.4
2017-01-24T04:08:55.838Z,919.35
2017-01-24T04:09:23.966Z,919.31
2017-01-24T04:09:52.824Z,919.32
2017-01-24T04:10:21.577Z,919.34
2017-01-24T04:10:49.461Z,919.31
2017-01-24T04:11:17.379Z,919.28
2017-01-24T04:11:45.422Z,919.31
2017-01-24T04:12:15.059Z,919.3
2017-01-24T04:12:43.923Z,919.3
2017-01-24T04:13:12.803Z,919.28
2017-01-24T04:13:40.898Z,919.29
2017-01-24T04:14:09.743Z,919.29
2017-01-24T04:14:38.627Z,919.29
2017-01-24T04:15:07.401Z,919.29
2017-01-24T04:15:36.331Z,919.32
2017-01-24T04:16:05.056Z,919.28
2017-01-24T04:16:33.063Z,919.27
2017-01-24T04:17:01.063Z,919.3
2017-01-24T04:17:29.141Z,919.3
2017-01-24T04:17:57.213Z,919.27
2017-01-24T04:18:26.858Z,919.27
2017-01-24T04:18:54.921Z,919.28
2017-01-24T04:19:23.785Z,919.24
2017-01-24T04:19:52.592Z,919.27
2017-01-24T04:20:21.232Z,919.28
2017-01-24T04:20:49.997Z,919.26
2017-01-24T04:21:18.068Z,919.27
2017-01-24T04:21:46.898Z,919.27
2017-01-24T04:22:14.848Z,919.27
2017-01-24T04:22:43.622Z,919.27
2017-01-24T04:23:11.612Z,919.27
2017-01-24T04:23:40.407Z,919.28
2017-01-24T04:24:09.172Z,919.3
2017-01-24T04:24:38.016Z,919.3
2017-01-24T04:25:05.828Z,919.28
2017-01-24T04:25:34.506Z,919.28
2017-01-24T04:26:02.554Z,919.29
2017-01-24T04:26:30.400Z,919.3
2017-01-24T04:26:58.441Z,919.32
2017-01-24T04:27:27.282Z,919.28
2017-01-24T04:27:56.125Z,919.3
2017-01-24T04:28:25.002Z,919.32
2017-01-24T04:28:53.076Z,919.3
2017-01-24T04:29:21.129Z,919.3
2017-01-24T04:29:49.213Z,919.28
2017-01-24T04:30:18.150Z,919.27
2017-01-24T04:30:46.069Z,919.26
2017-01-24T04:31:14.009Z,919.23
2017-01-24T04:31:42.869Z,919.24
2017-01-24T04:32:10.853Z,919.24
2017-01-24T04:32:40.493Z,919.23
2017-01-24T04:33:08.544Z,919.25
2017-01-24T04:33:37.422Z,919.18
2017-01-24T04:34:06.273Z,919.2
2017-01-24T04:34:35.831Z,919.18
2017-01-24T04:35:04.600Z,919.2
2017-01-24T04:35:32.842Z,919.2
2017-01-24T04:36:01.711Z,919.18
2017-01-24T04:36:30.553Z,919.19
2017-01-24T04:36:58.465Z,919.16
2017-01-24T04:37:26.366Z,919.17
2017-01-24T04:37:55.118Z,919.12
2017-01-24T04:38:24.629Z,919.14
2017-01-24T04:38:52.618Z,919.13
2017-01-24T04:39:20.570Z,919.15
2017-01-24T04:39:48.617Z,919.13
2017-01-24T04:40:16.599Z,919.11
2017-01-24T04:40:44.597Z,919.14
2017-01-24T04:41:12.697Z,919.1
2017-01-24T04:41:40.773Z,919.07
2017-01-24T04:42:09.440Z,919.07
2017-01-24T04:42:38.288Z,919.1
2017-01-24T04:43:44.519Z,919.07
2017-01-24T04:44:12.509Z,919.09
2017-01-24T04:44:40.486Z,919.09
2017-01-24T04:45:09.242Z,919.09
2017-01-24T04:45:37.486Z,919.06
2017-01-24T04:46:05.481Z,919.07
2017-01-24T04:46:34.238Z,919.05
2017-01-24T04:47:02.304Z,919.03
2017-01-24T04:47:30.320Z,919.07
2017-01-24T04:47:59.240Z,919.06
2017-01-24T04:48:27.291Z,919.01
2017-01-24T04:48:55.332Z,919.03
2017-01-24T04:49:24.099Z,919.04
2017-01-24T04:49:54.506Z,919.04
2017-01-24T04:50:22.574Z,919.04
2017-01-24T04:50:50.677Z,918.99
2017-01-24T04:51:18.631Z,919.02
2017-01-24T04:51:48.169Z,919.01
2017-01-24T04:52:16.265Z,918.98
2017-01-24T04:52:45.052Z,918.96
2017-01-24T04:53:13.931Z,918.96
2017-01-24T04:53:41.900Z,918.97
2017-01-24T04:54:10.001Z,918.97
2017-01-24T04:54:40.431Z,918.96
2017-01-24T04:55:08.449Z,918.93
2017-01-24T04:55:36.571Z,918.97
2017-01-24T04:56:05.339Z,918.94
2017-01-24T04:56:33.250Z,918.95
2017-01-24T04:57:01.235Z,918.94
2017-01-24T04:57:29.208Z,918.93
2017-01-24T04:57:57.210Z,918.92
2017-01-24T04:58:26.828Z,918.95
2017-01-24T04:58:54.727Z,918.92
2017-01-24T04:59:22.846Z,918.92
2017-01-24T04:59:51.584Z,918.95
2017-01-24T05:00:19.655Z,918.91
2017-01-24T05:00:48.561Z,918.92
2017-01-24T05:01:17.304Z,918.92
2017-01-24T05:01:46.030Z,918.9
2017-01-24T05:02:14.039Z,918.88
2017-01-24T05:02:42.708Z,918.88
2017-01-24T05:03:10.811Z,918.9
2017-01-24T05:03:38.791Z,918.86
2017-01-24T05:04:08.419Z,918.85
2017-01-24T05:04:37.270Z,918.87
2017-01-24T05:05:06.032Z,918.81
2017-01-24T05:05:34.181Z,918.82
2017-01-24T05:06:02.985Z,918.86
2017-01-24T05:06:30.928Z,918.82
2017-01-24T05:06:58.805Z,918.83
2017-01-24T05:07:26.871Z,918.81
2017-01-24T05:07:54.965Z,918.8
2017-01-24T05:08:23.097Z,918.85
2017-01-24T05:08:51.075Z,918.82
2017-01-24T05:09:19.833Z,918.81
2017-01-24T05:09:48.522Z,918.81
2017-01-24T05:10:16.624Z,918.8
2017-01-24T05:10:46.303Z,918.84
2017-01-24T05:11:14.380Z,918.8
2017-01-24T05:11:43.251Z,918.85
2017-01-24T05:12:12.018Z,918.81
2017-01-24T05:12:40.080Z,918.8
2017-01-24T05:13:08.059Z,918.81
2017-01-24T05:13:36.829Z,918.8
2017-01-24T05:14:04.919Z,918.81
2017-01-24T05:14:32.994Z,918.81
2017-01-24T05:15:01.050Z,918.78
2017-01-24T05:15:30.585Z,918.76
2017-01-24T05:15:58.796Z,918.76
2017-01-24T05:16:26.811Z,918.82
2017-01-24T05:16:55.675Z,918.82
2017-01-24T05:17:23.733Z,918.8
2017-01-24T05:17:51.777Z,918.82
2017-01-24T05:18:22.198Z,918.8
2017-01-24T05:18:50.150Z,918.79
2017-01-24T05:19:18.896Z,918.77
2017-01-24T05:19:46.965Z,918.74
2017-01-24T05:20:15.742Z,918.75
2017-01-24T05:20:43.745Z,918.77
2017-01-24T05:21:11.725Z,918.76
2017-01-24T05:21:41.366Z,918.76
2017-01-24T05:22:10.251Z,918.76
2017-01-24T05:23:17.237Z,918.76
2017-01-24T05:23:45.313Z,918.77
2017-01-24T05:24:13.190Z,918.74
2017-01-24T05:24:41.173Z,918.76
2017-01-24T05:25:09.106Z,918.77
2017-01-24T05:25:37.961Z,918.79
2017-01-24T05:26:06.808Z,918.75
2017-01-24T05:26:34.865Z,918.75
2017-01-24T05:27:02.879Z,918.79
2017-01-24T05:27:31.769Z,918.73
2017-01-24T05:27:59.753Z,918.75
2017-01-24T05:28:27.816Z,918.78
2017-01-24T05:28:57.370Z,918.75
2017-01-24T05:29:25.341Z,918.75
2017-01-24T05:29:54.975Z,918.76
2017-01-24T05:30:22.989Z,918.74
2017-01-24T05:30:51.089Z,918.71
2017-01-24T05:31:19.076Z,918.75
2017-01-24T05:31:47.943Z,918.7
2017-01-24T05:32:16.739Z,918.71
2017-01-24T05:32:44.652Z,918.66
2017-01-24T05:33:13.492Z,918.71
2017-01-24T05:33:42.369Z,918.66
2017-01-24T05:34:10.969Z,918.67
2017-01-24T05:34:39.574Z,918.64
2017-01-24T05:35:07.514Z,918.6
2017-01-24T05:35:35.507Z,918.62
2017-01-24T05:36:03.519Z,918.58
2017-01-24T05:36:31.599Z,918.6
2017-01-24T05:36:59.668Z,918.6
2017-01-24T05:37:28.539Z,918.56
2017-01-24T05:37:56.504Z,918.57
2017-01-24T05:38:24.403Z,918.59
2017-01-24T05:38:53.304Z,918.58
2017-01-24T05:39:22.029Z,918.58
2017-01-24T05:39:50.875Z,918.58
2017-01-24T05:40:18.767Z,918.59
2017-01-24T05:40:46.818Z,918.6
2017-01-24T05:41:14.776Z,918.59
2017-01-24T05:41:42.874Z,918.61
2017-01-24T05:42:11.546Z,918.61
2017-01-24T05:42:40.425Z,918.59
2017-01-24T05:43:08.607Z,918.6
2017-01-24T05:43:36.509Z,918.6
2017-01-24T05:44:05.370Z,918.61
2017-01-24T05:44:34.902Z,918.58
2017-01-24T05:45:03.644Z,918.59
2017-01-24T05:45:32.461Z,918.58
2017-01-24T05:46:01.444Z,918.6
2017-01-24T05:46:29.494Z,918.55
2017-01-24T05:46:57.469Z,918.58
2017-01-24T05:47:25.475Z,918.56
2017-01-24T05:47:53.369Z,918.58
2017-01-24T05:48:22.215Z,918.56
2017-01-24T05:48:50.114Z,918.59
2017-01-24T05:49:18.218Z,918.57
2017-01-24T05:49:46.133Z,918.57
2017-01-24T05:50:14.943Z,918.56
2017-01-24T05:50:43.713Z,918.55
2017-01-24T05:51:11.716Z,918.57
2017-01-24T05:51:39.773Z,918.54
2017-01-24T05:52:07.726Z,918.57
2017-01-24T05:52:35.725Z,918.55
2017-01-24T05:53:03.617Z,918.55
2017-01-24T05:53:31.613Z,918.54
2017-01-24T05:54:00.386Z,918.55
2017-01-24T05:54:29.204Z,918.54
2017-01-24T05:54:57.199Z,918.56
2017-01-24T05:55:25.074Z,918.56
2017-01-24T05:55:52.984Z,918.56
2017-01-24T05:56:21.851Z,918.58
2017-01-24T05:56:50.511Z,918.58
2017-01-24T05:57:18.465Z,918.6
2017-01-24T05:57:46.546Z,918.59
2017-01-24T05:58:14.493Z,918.57
2017-01-24T05:58:42.453Z,918.53
2017-01-24T05:59:11.318Z,918.57
2017-01-24T05:59:39.312Z,918.54
2017-01-24T06:00:08.213Z,918.58
2017-01-24T06:00:36.286Z,918.6
2017-01-24T06:01:05.109Z,918.59
2017-01-24T06:01:33.005Z,918.57